| time (UTC) | temp F | wind direction | speed MPH | gust MPH | rain 1hr in | rain 24hr in | rain mn in | humidity % | barometer mb |
| 20260507144519 | 56 | 293 | 6.0 | 10.0 | 0.00 | 0.00 | 0.00 | 44 | 1015.3 |
| 20260507143517 | 55 | 315 | 6.0 | 9.0 | 0.00 | 0.00 | 0.00 | 45 | 1015.6 |
| 20260507142517 | 55 | 315 | 8.0 | 12.0 | 0.00 | 0.00 | 0.00 | 45 | 1015.7 |
| 20260507141519 | 53 | 315 | 5.0 | 8.0 | 0.00 | 0.00 | 0.00 | 51 | 1015.7 |
| 20260507140519 | 52 | 338 | 5.0 | 8.0 | 0.00 | 0.00 | 0.00 | 52 | 1015.6 |
| 20260507135519 | 50 | 338 | 4.0 | 6.0 | 0.00 | 0.00 | 0.00 | 54 | 1015.5 |
| 20260507134519 | 49 | 315 | 5.0 | 8.0 | 0.00 | 0.00 | 0.00 | 56 | 1015.4 |
| 20260507133517 | 48 | 315 | 5.0 | 8.0 | 0.00 | 0.00 | 0.00 | 58 | 1015.2 |
| 20260507132519 | 47 | 338 | 3.0 | 6.0 | 0.00 | 0.00 | 0.00 | 65 | 1015.1 |
| 20260507131519 | 45 | 338 | 3.0 | 4.0 | 0.00 | 0.00 | 0.00 | 67 | 1014.8 |
| 20260507130519 | 44 | 0 | 1.0 | 3.0 | 0.00 | 0.00 | 0.00 | 71 | 1014.7 |
| 20260507125519 | 43 | 248 | 2.0 | 4.0 | 0.00 | 0.00 | 0.00 | 72 | 1014.9 |
| 20260507124519 | 42 | 0.0 | 2.0 | 0.00 | 0.00 | 0.00 | 73 | 1014.3 | |
| 20260507123519 | 40 | 248 | 1.0 | 2.0 | 0.00 | 0.00 | 0.00 | 74 | 1014.2 |
| 20260507122519 | 40 | 0.0 | 0.0 | 0.00 | 0.00 | 0.00 | 73 | 1014.0 | |
| 20260507121519 | 40 | 248 | 3.0 | 7.0 | 0.00 | 0.00 | 0.00 | 74 | 1013.9 |
| 20260507120519 | 38 | 270 | 3.0 | 4.0 | 0.00 | 0.00 | 0.00 | 74 | 1013.7 |
| 20260507115519 | 36 | 293 | 3.0 | 4.0 | 0.00 | 0.00 | 0.00 | 75 | 1013.4 |
| 20260507114519 | 34 | 293 | 2.0 | 3.0 | 0.00 | 0.00 | 0.00 | 79 | 1013.2 |
| 20260507113519 | 33 | 293 | 1.0 | 2.0 | 0.00 | 0.00 | 0.00 | 78 | 1012.9 |
| 20260507112519 | 33 | 293 | 1.0 | 2.0 | 0.00 | 0.00 | 0.00 | 77 | 1013.0 |
| 20260507111519 | 34 | 0.0 | 0.0 | 0.00 | 0.00 | 0.00 | 76 | 1013.2 | |
| 20260507110518 | 35 | 0.0 | 0.0 | 0.00 | 0.00 | 0.00 | 74 | 1013.2 | |
| 20260507105519 | 36 | 0.0 | 0.0 | 0.00 | 0.00 | 0.00 | 73 | 1013.5 | |
| 20260507104519 | 36 | 0.0 | 0.0 | 0.00 | 0.00 | 0.00 | 72 | 1013.3 | |
| 20260507103519 | 36 | 293 | 1.0 | 2.0 | 0.00 | 0.00 | 0.00 | 73 | 1013.6 |
| 20260507102519 | 36 | 0.0 | 2.0 | 0.00 | 0.00 | 0.00 | 75 | 1013.3 | |
| 20260507101519 | 34 | 293 | 1.0 | 2.0 | 0.00 | 0.00 | 0.00 | 80 | 1013.1 |
| 20260507100520 | 32 | 293 | 2.0 | 3.0 | 0.00 | 0.00 | 0.00 | 83 | 1013.0 |
| 20260507095519 | 30 | 293 | 1.0 | 3.0 | 0.00 | 0.00 | 0.00 | 83 | 1012.4 |
| 20260507094519 | 30 | 0.0 | 2.0 | 0.00 | 0.00 | 0.00 | 81 | 1012.3 | |
| 20260507093519 | 30 | 0.0 | 0.0 | 0.00 | 0.00 | 0.00 | 81 | 1012.4 | |
| 20260507092519 | 31 | 0.0 | 0.0 | 0.00 | 0.00 | 0.00 | 79 | 1012.5 | |
| 20260507091519 | 31 | 0.0 | 0.0 | 0.00 | 0.00 | 0.00 | 79 | 1012.4 | |
| 20260507090519 | 32 | 0.0 | 1.0 | 0.00 | 0.00 | 0.00 | 77 | 1012.7 | |
| 20260507085518 | 33 | 0.0 | 1.0 | 0.00 | 0.00 | 0.00 | 80 | 1012.7 | |
| 20260507084518 | 32 | 0.0 | 0.0 | 0.00 | 0.00 | 0.00 | 80 | 1012.8 | |
| 20260507083519 | 32 | 293 | 1.0 | 3.0 | 0.00 | 0.00 | 0.00 | 83 | 1012.8 |
| 20260507082519 | 31 | 0.0 | 0.0 | 0.00 | 0.00 | 0.00 | 81 | 1012.5 | |
| 20260507081518 | 31 | 293 | 1.0 | 2.0 | 0.00 | 0.00 | 0.00 | 80 | 1012.7 |
| 20260507080518 | 33 | 293 | 1.0 | 2.0 | 0.00 | 0.00 | 0.00 | 77 | 1013.0 |
| 20260507075518 | 33 | 0.0 | 1.0 | 0.00 | 0.00 | 0.00 | 81 | 1013.1 | |
| 20260507074523 | 33 | 0.0 | 0.0 | 0.00 | 0.00 | 0.00 | 80 | 1013.0 | |
| 20260507073518 | 33 | 0.0 | 0.0 | 0.00 | 0.00 | 0.00 | 81 | 1013.4 | |
| 20260507072518 | 33 | 0.0 | 1.0 | 0.00 | 0.00 | 0.00 | 80 | 1013.2 | |
| 20260507071523 | 33 | 293 | 2.0 | 3.0 | 0.00 | 0.00 | 0.00 | 79 | 1013.0 |
| 20260507070519 | 33 | 293 | 1.0 | 3.0 | 0.00 | 0.00 | 0.00 | 78 | 1013.4 |
| 20260507065518 | 35 | 293 | 1.0 | 2.0 | 0.00 | 0.00 | 0.00 | 77 | 1013.5 |
| 20260507064518 | 34 | 293 | 1.0 | 2.0 | 0.00 | 0.00 | 0.00 | 78 | 1013.6 |
| 20260507063521 | 34 | 270 | 2.0 | 3.0 | 0.00 | 0.00 | 0.00 | 78 | 1013.4 |
| 20260507062643 | 34 | 270 | 1.0 | 3.0 | 0.00 | 0.00 | 0.00 | 75 | 1013.4 |
| 20260507061518 | 35 | 270 | 2.0 | 3.0 | 0.00 | 0.00 | 0.00 | 76 | 1013.7 |
| 20260507060518 | 36 | 158 | 1.0 | 3.0 | 0.00 | 0.00 | 0.00 | 73 | 1013.7 |
| 20260507055519 | 37 | 158 | 1.0 | 2.0 | 0.00 | 0.00 | 0.00 | 74 | 1013.8 |
| 20260507054522 | 37 | 0.0 | 1.0 | 0.00 | 0.00 | 0.00 | 77 | 1013.9 | |
| 20260507053519 | 36 | 0.0 | 0.0 | 0.00 | 0.00 | 0.00 | 78 | 1014.0 | |
| 20260507052524 | 36 | 0.0 | 0.0 | 0.00 | 0.00 | 0.00 | 77 | 1013.7 | |
| 20260507051519 | 36 | 0.0 | 0.0 | 0.00 | 0.00 | 0.00 | 75 | 1013.9 | |
| 20260507050519 | 36 | 0.0 | 1.0 | 0.00 | 0.00 | 0.00 | 74 | 1014.0 | |
| 20260507045519 | 37 | 0.0 | 1.0 | 0.00 | 0.00 | 0.00 | 73 | 1013.8 | |
| 20260507044519 | 37 | 0.0 | 2.0 | 0.00 | 0.00 | 0.00 | 74 | 1014.1 | |
| 20260507043535 | 37 | 0.0 | 0.0 | 0.00 | 0.00 | 0.00 | 71 | 1014.2 | |
| 20260507042522 | 38 | 158 | 1.0 | 2.0 | 0.00 | 0.00 | 0.00 | 67 | 1014.1 |
| 20260507041521 | 40 | 0.0 | 0.0 | 0.00 | 0.00 | 0.00 | 66 | 1014.3 | |
| 20260507040519 | 41 | 0.0 | 0.0 | 0.00 | 0.00 | 0.00 | 64 | 1014.4 | |
| 20260507035521 | 42 | 0.0 | 2.0 | 0.00 | 0.00 | 0.00 | 63 | 1014.4 | |
| 20260507034519 | 42 | 0.0 | 1.0 | 0.00 | 0.00 | 0.00 | 61 | 1014.4 | |
| 20260507033519 | 43 | 0.0 | 2.0 | 0.00 | 0.00 | 0.00 | 60 | 1014.6 | |
| 20260507032519 | 43 | 0.0 | 2.0 | 0.00 | 0.00 | 0.00 | 57 | 1014.6 | |
| 20260507031518 | 44 | 180 | 1.0 | 3.0 | 0.00 | 0.00 | 0.00 | 55 | 1014.6 |
| 20260507030517 | 44 | 180 | 1.0 | 3.0 | 0.00 | 0.00 | 0.00 | 51 | 1014.7 |
| 20260507025519 | 44 | 0.0 | 4.0 | 0.00 | 0.00 | 0.00 | 49 | 1014.5 | |
| 20260507024519 | 45 | 0.0 | 0.0 | 0.00 | 0.00 | 0.00 | 49 | 1014.5 | |
| 20260507023519 | 47 | 0.0 | 0.0 | 0.00 | 0.00 | 0.00 | 45 | 1014.8 | |
| 20260507022519 | 48 | 0.0 | 0.0 | 0.00 | 0.00 | 0.00 | 42 | 1014.9 | |
| 20260507021519 | 49 | 0.0 | 0.0 | 0.00 | 0.00 | 0.00 | 36 | 1015.0 | |
| 20260507020520 | 50 | 0.0 | 0.0 | 0.00 | 0.00 | 0.00 | 39 | 1015.2 | |
| 20260507015518 | 52 | 0.0 | 0.0 | 0.00 | 0.00 | 0.00 | 37 | 1015.5 | |
| 20260507014519 | 53 | 293 | 1.0 | 3.0 | 0.00 | 0.00 | 0.00 | 31 | 1015.5 |
| 20260507013519 | 53 | 270 | 2.0 | 4.0 | 0.00 | 0.00 | 0.00 | 30 | 1015.2 |
| 20260507012518 | 54 | 270 | 4.0 | 7.0 | 0.00 | 0.00 | 0.00 | 30 | 1015.6 |
| 20260507011519 | 54 | 270 | 8.0 | 12.0 | 0.00 | 0.00 | 0.00 | 28 | 1015.3 |
| 20260507010518 | 55 | 270 | 9.0 | 13.0 | 0.00 | 0.00 | 0.00 | 28 | 1015.4 |
| 20260507005519 | 55 | 248 | 7.0 | 13.0 | 0.00 | 0.00 | 0.00 | 28 | 1015.5 |
| 20260507004518 | 55 | 270 | 6.0 | 10.0 | 0.00 | 0.00 | 0.00 | 28 | 1015.6 |
| 20260507003519 | 55 | 270 | 10.0 | 16.0 | 0.00 | 0.00 | 0.00 | 28 | 1015.5 |
| 20260507002518 | 55 | 270 | 12.0 | 16.0 | 0.00 | 0.00 | 0.00 | 28 | 1015.5 |
| 20260507001518 | 56 | 248 | 8.0 | 15.0 | 0.00 | 0.00 | 0.00 | 27 | 1015.8 |
| 20260507000518 | 56 | 270 | 7.0 | 10.0 | 0.00 | 0.00 | 0.00 | 27 | 1015.8 |
| 20260506235518 | 56 | 270 | 9.0 | 16.0 | 0.00 | 0.00 | 0.00 | 28 | 1016.0 |
| 20260506234519 | 57 | 225 | 5.0 | 9.0 | 0.00 | 0.00 | 0.00 | 28 | 1016.1 |
| 20260506233518 | 56 | 270 | 4.0 | 8.0 | 0.00 | 0.00 | 0.00 | 30 | 1016.2 |
| 20260506232518 | 56 | 270 | 7.0 | 10.0 | 0.00 | 0.00 | 0.00 | 29 | 1016.4 |
| 20260506231519 | 56 | 248 | 11.0 | 18.0 | 0.00 | 0.00 | 0.00 | 28 | 1016.5 |
| 20260506230518 | 56 | 248 | 8.0 | 18.0 | 0.00 | 0.00 | 0.00 | 30 | 1016.6 |
| 20260506225518 | 56 | 248 | 9.0 | 16.0 | 0.00 | 0.00 | 0.00 | 30 | 1016.8 |
| 20260506224518 | 55 | 225 | 5.0 | 12.0 | 0.00 | 0.00 | 0.00 | 32 | 1016.6 |
| 20260506223518 | 56 | 248 | 10.0 | 15.0 | 0.00 | 0.00 | 0.00 | 29 | 1017.2 |
| 20260506222518 | 55 | 270 | 12.0 | 18.0 | 0.00 | 0.00 | 0.00 | 30 | 1017.3 |
| 20260506221518 | 55 | 270 | 10.0 | 15.0 | 0.00 | 0.00 | 0.00 | 29 | 1017.4 |
| 20260506220518 | 56 | 248 | 9.0 | 14.0 | 0.00 | 0.00 | 0.00 | 28 | 1017.9 |
| 20260506215518 | 55 | 248 | 9.0 | 15.0 | 0.00 | 0.00 | 0.00 | 30 | 1017.7 |
| 20260506214518 | 55 | 270 | 11.0 | 17.0 | 0.00 | 0.00 | 0.00 | 29 | 1018.1 |
| 20260506213518 | 55 | 248 | 11.0 | 19.0 | 0.00 | 0.00 | 0.00 | 31 | 1018.5 |
| 20260506212518 | 54 | 248 | 10.0 | 19.0 | 0.00 | 0.00 | 0.00 | 31 | 1018.6 |
| 20260506211518 | 53 | 293 | 11.0 | 18.0 | 0.00 | 0.00 | 0.00 | 29 | 1018.5 |
| 20260506210518 | 54 | 270 | 13.0 | 21.0 | 0.00 | 0.00 | 0.00 | 28 | 1019.0 |
| 20260506205518 | 54 | 225 | 7.0 | 13.0 | 0.00 | 0.00 | 0.00 | 31 | 1019.2 |
| 20260506204519 | 54 | 225 | 7.0 | 15.0 | 0.00 | 0.00 | 0.00 | 30 | 1019.4 |
| 20260506203518 | 54 | 248 | 7.0 | 16.0 | 0.00 | 0.00 | 0.00 | 30 | 1019.5 |
| 20260506202518 | 54 | 248 | 7.0 | 13.0 | 0.00 | 0.00 | 0.00 | 31 | 1019.6 |
| 20260506201518 | 53 | 270 | 9.0 | 14.0 | 0.00 | 0.00 | 0.00 | 29 | 1019.4 |
| 20260506200520 | 53 | 248 | 9.0 | 15.0 | 0.00 | 0.00 | 0.00 | 31 | 1019.8 |
| 20260506195518 | 53 | 248 | 5.0 | 12.0 | 0.00 | 0.00 | 0.00 | 30 | 1019.9 |
| 20260506194518 | 52 | 270 | 9.0 | 14.0 | 0.00 | 0.01 | 0.00 | 29 | 1019.8 |
| 20260506193518 | 53 | 248 | 5.0 | 10.0 | 0.00 | 0.01 | 0.00 | 32 | 1020.1 |
| 20260506192518 | 52 | 225 | 7.0 | 15.0 | 0.00 | 0.01 | 0.00 | 33 | 1020.4 |
| 20260506191518 | 50 | 315 | 8.0 | 13.0 | 0.00 | 0.01 | 0.00 | 33 | 1020.0 |
| 20260506190518 | 51 | 270 | 10.0 | 14.0 | 0.00 | 0.01 | 0.00 | 31 | 1020.3 |
| 20260506185518 | 51 | 270 | 8.0 | 14.0 | 0.00 | 0.01 | 0.00 | 35 | 1020.3 |
| 20260506184518 | 50 | 248 | 9.0 | 17.0 | 0.00 | 0.01 | 0.00 | 34 | 1020.4 |
| 20260506183518 | 49 | 315 | 10.0 | 15.0 | 0.00 | 0.01 | 0.00 | 35 | 1020.5 |
| 20260506182517 | 49 | 270 | 9.0 | 19.0 | 0.00 | 0.01 | 0.00 | 37 | 1020.8 |
| 20260506181518 | 49 | 225 | 3.0 | 8.0 | 0.00 | 0.01 | 0.00 | 36 | 1020.9 |
| 20260506180518 | 49 | 270 | 7.0 | 15.0 | 0.00 | 0.01 | 0.00 | 38 | 1020.6 |
| 20260506175517 | 48 | 315 | 9.0 | 17.0 | 0.00 | 0.01 | 0.00 | 37 | 1021.0 |
| 20260506174518 | 48 | 315 | 8.0 | 12.0 | 0.00 | 0.01 | 0.00 | 37 | 1021.0 |
| 20260506173518 | 48 | 270 | 10.0 | 16.0 | 0.00 | 0.01 | 0.00 | 35 | 1021.1 |
| 20260506172518 | 48 | 248 | 6.0 | 12.0 | 0.00 | 0.01 | 0.00 | 36 | 1020.8 |
| 20260506171518 | 47 | 293 | 8.0 | 15.0 | 0.00 | 0.01 | 0.00 | 36 | 1021.2 |
| 20260506170518 | 46 | 270 | 9.0 | 16.0 | 0.00 | 0.01 | 0.00 | 38 | 1021.1 |
| 20260506165517 | 45 | 225 | 3.0 | 10.0 | 0.00 | 0.01 | 0.00 | 46 | 1021.1 |
| 20260506164518 | 45 | 270 | 7.0 | 11.0 | 0.00 | 0.01 | 0.00 | 47 | 1021.1 |
| 20260506163518 | 45 | 293 | 9.0 | 15.0 | 0.00 | 0.01 | 0.00 | 45 | 1021.1 |
| 20260506162518 | 45 | 270 | 7.0 | 13.0 | 0.00 | 0.01 | 0.00 | 44 | 1021.1 |
| 20260506161517 | 44 | 315 | 6.0 | 14.0 | 0.00 | 0.01 | 0.00 | 44 | 1021.2 |
| 20260506160517 | 43 | 293 | 6.0 | 10.0 | 0.00 | 0.01 | 0.00 | 50 | 1021.3 |
| 20260506155518 | 42 | 293 | 7.0 | 12.0 | 0.00 | 0.01 | 0.00 | 51 | 1021.0 |
| 20260506154517 | 43 | 293 | 5.0 | 9.0 | 0.00 | 0.01 | 0.00 | 55 | 1021.3 |
| 20260506153518 | 42 | 315 | 4.0 | 12.0 | 0.00 | 0.01 | 0.00 | 56 | 1021.3 |
| 20260506152518 | 41 | 270 | 4.0 | 8.0 | 0.00 | 0.01 | 0.00 | 56 | 1021.1 |
| 20260506151517 | 41 | 293 | 4.0 | 9.0 | 0.00 | 0.01 | 0.00 | 57 | 1021.4 |
| 20260506150518 | 40 | 248 | 4.0 | 7.0 | 0.00 | 0.01 | 0.00 | 59 | 1021.2 |
| 20260506145517 | 40 | 270 | 4.0 | 8.0 | 0.00 | 0.01 | 0.00 | 60 | 1021.4 |